Stinson Lake, New Hampshire
Current Conditions -  °F | °C
As of 5:15 AM on Thursday 23 Oct 2014 (Local Time) from K1P1 Reporting Station
Moderate Rain Moderate Rain  
Wind Chill: 50°   Ceiling: 2900
Heat Index: 50°   Visibility: 7mi
Dew Point: 50°   Wind: 0mph
Humidity: 99%   Direction: NA
Pressure: 29.86"   Gusts: NA
Location:  43.86°N, 71.81°W
Report Text: K1P1 230915Z AUTO 00000KT 7SM RA OVC029 10/10 A2986 RMK AO2 P0002 T00990098
Loading
Personal Weather Stations






























Interactive Weather Map
Tropical Storm Tracking
New forecast layout! Learn more

10-Day Weather Forecast

Advertisements
Track Severe Weather on mobile